sensor_id;sensor_type;location;lat;lon;timestamp;P1;durP1;ratioP1;P2;durP2;ratioP2
19830;SDS011;10076;52.008;4.708;2024-01-10T00:01:17;16.20;;;15.50;;
19830;SDS011;10076;52.008;4.708;2024-01-10T00:03:43;16.03;;;15.27;;
19830;SDS011;10076;52.008;4.708;2024-01-10T00:06:10;15.90;;;15.20;;
19830;SDS011;10076;52.008;4.708;2024-01-10T00:08:35;16.30;;;15.50;;
19830;SDS011;10076;52.008;4.708;2024-01-10T00:11:01;15.80;;;15.10;;
19830;SDS011;10076;52.008;4.708;2024-01-10T00:13:26;16.30;;;15.50;;
19830;SDS011;10076;52.008;4.708;2024-01-10T00:15:52;16.10;;;15.40;;
19830;SDS011;10076;52.008;4.708;2024-01-10T00:18:18;17.53;;;16.53;;
19830;SDS011;10076;52.008;4.708;2024-01-10T00:20:43;15.97;;;15.27;;
19830;SDS011;10076;52.008;4.708;2024-01-10T00:23:09;16.77;;;15.97;;
19830;SDS011;10076;52.008;4.708;2024-01-10T00:25:34;15.97;;;15.17;;
19830;SDS011;10076;52.008;4.708;2024-01-10T00:27:59;16.77;;;15.97;;
19830;SDS011;10076;52.008;4.708;2024-01-10T00:30:25;17.03;;;16.23;;
19830;SDS011;10076;52.008;4.708;2024-01-10T00:32:50;16.57;;;15.77;;
19830;SDS011;10076;52.008;4.708;2024-01-10T00:35:15;16.83;;;16.03;;
19830;SDS011;10076;52.008;4.708;2024-01-10T00:37:41;16.63;;;15.83;;
19830;SDS011;10076;52.008;4.708;2024-01-10T00:40:06;17.27;;;16.47;;
19830;SDS011;10076;52.008;4.708;2024-01-10T00:42:32;16.70;;;15.90;;
19830;SDS011;10076;52.008;4.708;2024-01-10T00:44:58;16.93;;;16.13;;
19830;SDS011;10076;52.008;4.708;2024-01-10T00:47:23;17.13;;;16.33;;
19830;SDS011;10076;52.008;4.708;2024-01-10T00:49:48;17.10;;;16.30;;
19830;SDS011;10076;52.008;4.708;2024-01-10T00:52:14;17.40;;;16.60;;
19830;SDS011;10076;52.008;4.708;2024-01-10T00:54:39;16.70;;;15.90;;
19830;SDS011;10076;52.008;4.708;2024-01-10T00:57:05;17.27;;;16.47;;
19830;SDS011;10076;52.008;4.708;2024-01-10T00:59:30;18.37;;;17.37;;
19830;SDS011;10076;52.008;4.708;2024-01-10T01:01:55;17.67;;;16.53;;
19830;SDS011;10076;52.008;4.708;2024-01-10T01:04:21;17.90;;;16.47;;
19830;SDS011;10076;52.008;4.708;2024-01-10T01:06:46;16.70;;;15.90;;
19830;SDS011;10076;52.008;4.708;2024-01-10T01:09:11;17.70;;;16.80;;
19830;SDS011;10076;52.008;4.708;2024-01-10T01:11:40;17.23;;;16.43;;
19830;SDS011;10076;52.008;4.708;2024-01-10T01:14:06;17.23;;;16.43;;
19830;SDS011;10076;52.008;4.708;2024-01-10T01:16:31;17.27;;;16.47;;
19830;SDS011;10076;52.008;4.708;2024-01-10T01:18:57;17.10;;;16.30;;
19830;SDS011;10076;52.008;4.708;2024-01-10T01:21:22;17.80;;;17.00;;
19830;SDS011;10076;52.008;4.708;2024-01-10T01:23:47;17.47;;;16.67;;
19830;SDS011;10076;52.008;4.708;2024-01-10T01:26:13;17.60;;;16.80;;
19830;SDS011;10076;52.008;4.708;2024-01-10T01:28:39;17.37;;;16.57;;
19830;SDS011;10076;52.008;4.708;2024-01-10T01:31:04;17.90;;;17.07;;
19830;SDS011;10076;52.008;4.708;2024-01-10T01:33:30;18.10;;;17.30;;
19830;SDS011;10076;52.008;4.708;2024-01-10T01:35:55;17.53;;;16.73;;
19830;SDS011;10076;52.008;4.708;2024-01-10T01:38:20;17.93;;;17.00;;
19830;SDS011;10076;52.008;4.708;2024-01-10T01:40:46;18.10;;;17.20;;
19830;SDS011;10076;52.008;4.708;2024-01-10T01:43:21;17.80;;;17.00;;
19830;SDS011;10076;52.008;4.708;2024-01-10T01:45:51;17.53;;;16.73;;
19830;SDS011;10076;52.008;4.708;2024-01-10T01:48:19;17.47;;;16.60;;
19830;SDS011;10076;52.008;4.708;2024-01-10T01:50:45;17.67;;;16.87;;
19830;SDS011;10076;52.008;4.708;2024-01-10T01:53:13;18.57;;;17.63;;
19830;SDS011;10076;52.008;4.708;2024-01-10T01:55:40;17.43;;;16.63;;
19830;SDS011;10076;52.008;4.708;2024-01-10T01:58:08;18.00;;;17.10;;
19830;SDS011;10076;52.008;4.708;2024-01-10T02:00:34;17.77;;;16.97;;
19830;SDS011;10076;52.008;4.708;2024-01-10T02:03:00;17.57;;;16.77;;
19830;SDS011;10076;52.008;4.708;2024-01-10T02:05:26;17.77;;;16.97;;
19830;SDS011;10076;52.008;4.708;2024-01-10T02:07:52;17.50;;;16.70;;
19830;SDS011;10076;52.008;4.708;2024-01-10T02:10:18;18.23;;;17.23;;
19830;SDS011;10076;52.008;4.708;2024-01-10T02:12:44;17.30;;;16.50;;
19830;SDS011;10076;52.008;4.708;2024-01-10T02:15:10;18.37;;;17.47;;
19830;SDS011;10076;52.008;4.708;2024-01-10T02:17:36;17.97;;;17.10;;
19830;SDS011;10076;52.008;4.708;2024-01-10T02:20:14;17.87;;;16.97;;
19830;SDS011;10076;52.008;4.708;2024-01-10T02:22:43;17.63;;;16.83;;
19830;SDS011;10076;52.008;4.708;2024-01-10T02:25:10;18.63;;;17.53;;
19830;SDS011;10076;52.008;4.708;2024-01-10T02:27:36;18.03;;;17.13;;
19830;SDS011;10076;52.008;4.708;2024-01-10T02:30:03;19.03;;;17.93;;
19830;SDS011;10076;52.008;4.708;2024-01-10T02:32:29;18.00;;;17.10;;
19830;SDS011;10076;52.008;4.708;2024-01-10T02:34:54;18.60;;;17.70;;
19830;SDS011;10076;52.008;4.708;2024-01-10T02:37:20;18.60;;;17.70;;
19830;SDS011;10076;52.008;4.708;2024-01-10T02:39:45;18.53;;;17.50;;
19830;SDS011;10076;52.008;4.708;2024-01-10T02:42:11;18.87;;;17.97;;
19830;SDS011;10076;52.008;4.708;2024-01-10T02:44:36;19.03;;;18.13;;
19830;SDS011;10076;52.008;4.708;2024-01-10T02:47:02;17.13;;;15.90;;
19830;SDS011;10076;52.008;4.708;2024-01-10T02:49:27;16.13;;;15.43;;
19830;SDS011;10076;52.008;4.708;2024-01-10T02:51:52;16.80;;;16.10;;
19830;SDS011;10076;52.008;4.708;2024-01-10T02:54:18;17.40;;;16.60;;
19830;SDS011;10076;52.008;4.708;2024-01-10T02:56:43;16.70;;;16.00;;
19830;SDS011;10076;52.008;4.708;2024-01-10T02:59:08;17.50;;;16.70;;
19830;SDS011;10076;52.008;4.708;2024-01-10T03:01:34;17.30;;;16.50;;
19830;SDS011;10076;52.008;4.708;2024-01-10T03:03:59;17.43;;;16.63;;
19830;SDS011;10076;52.008;4.708;2024-01-10T03:06:24;17.60;;;16.77;;
19830;SDS011;10076;52.008;4.708;2024-01-10T03:08:50;18.10;;;17.10;;
19830;SDS011;10076;52.008;4.708;2024-01-10T03:11:16;18.43;;;17.53;;
19830;SDS011;10076;52.008;4.708;2024-01-10T03:13:43;18.60;;;17.67;;
19830;SDS011;10076;52.008;4.708;2024-01-10T03:16:09;17.93;;;17.03;;
19830;SDS011;10076;52.008;4.708;2024-01-10T03:18:34;17.63;;;16.83;;
19830;SDS011;10076;52.008;4.708;2024-01-10T03:20:59;17.37;;;16.57;;
19830;SDS011;10076;52.008;4.708;2024-01-10T03:23:25;18.07;;;17.27;;
19830;SDS011;10076;52.008;4.708;2024-01-10T03:25:51;17.63;;;16.83;;
19830;SDS011;10076;52.008;4.708;2024-01-10T03:28:17;18.57;;;17.67;;
19830;SDS011;10076;52.008;4.708;2024-01-10T03:30:43;18.17;;;17.27;;
19830;SDS011;10076;52.008;4.708;2024-01-10T03:33:08;18.00;;;17.13;;
19830;SDS011;10076;52.008;4.708;2024-01-10T03:35:33;19.67;;;18.43;;
19830;SDS011;10076;52.008;4.708;2024-01-10T03:37:59;19.17;;;18.27;;
19830;SDS011;10076;52.008;4.708;2024-01-10T03:40:24;19.00;;;18.10;;
19830;SDS011;10076;52.008;4.708;2024-01-10T03:42:49;19.27;;;18.27;;
19830;SDS011;10076;52.008;4.708;2024-01-10T03:45:15;19.33;;;18.33;;
19830;SDS011;10076;52.008;4.708;2024-01-10T03:47:44;19.53;;;18.53;;
19830;SDS011;10076;52.008;4.708;2024-01-10T03:50:09;20.00;;;19.00;;
19830;SDS011;10076;52.008;4.708;2024-01-10T03:52:34;19.23;;;18.23;;
19830;SDS011;10076;52.008;4.708;2024-01-10T03:55:00;20.57;;;19.50;;
19830;SDS011;10076;52.008;4.708;2024-01-10T03:57:25;19.67;;;18.67;;
19830;SDS011;10076;52.008;4.708;2024-01-10T03:59:51;19.53;;;18.53;;
19830;SDS011;10076;52.008;4.708;2024-01-10T04:02:16;20.70;;;19.70;;
19830;SDS011;10076;52.008;4.708;2024-01-10T04:04:42;19.53;;;18.53;;
19830;SDS011;10076;52.008;4.708;2024-01-10T04:07:07;20.13;;;19.03;;
19830;SDS011;10076;52.008;4.708;2024-01-10T04:09:33;20.73;;;19.37;;
19830;SDS011;10076;52.008;4.708;2024-01-10T04:11:59;20.07;;;19.07;;
19830;SDS011;10076;52.008;4.708;2024-01-10T04:14:24;20.37;;;19.37;;
19830;SDS011;10076;52.008;4.708;2024-01-10T04:16:49;21.13;;;20.03;;
19830;SDS011;10076;52.008;4.708;2024-01-10T04:19:16;20.67;;;19.63;;
19830;SDS011;10076;52.008;4.708;2024-01-10T04:21:41;20.53;;;19.53;;
19830;SDS011;10076;52.008;4.708;2024-01-10T04:24:07;20.10;;;19.10;;
19830;SDS011;10076;52.008;4.708;2024-01-10T04:26:32;21.53;;;20.33;;
19830;SDS011;10076;52.008;4.708;2024-01-10T04:28:57;19.60;;;18.60;;
19830;SDS011;10076;52.008;4.708;2024-01-10T04:31:22;20.30;;;19.00;;
19830;SDS011;10076;52.008;4.708;2024-01-10T04:33:48;19.67;;;18.67;;
19830;SDS011;10076;52.008;4.708;2024-01-10T04:36:14;19.83;;;18.83;;
19830;SDS011;10076;52.008;4.708;2024-01-10T04:38:39;20.50;;;19.40;;
19830;SDS011;10076;52.008;4.708;2024-01-10T04:41:04;20.17;;;19.17;;
19830;SDS011;10076;52.008;4.708;2024-01-10T04:43:30;19.63;;;18.63;;
19830;SDS011;10076;52.008;4.708;2024-01-10T04:45:55;20.00;;;19.00;;
19830;SDS011;10076;52.008;4.708;2024-01-10T04:48:20;19.40;;;18.40;;
19830;SDS011;10076;52.008;4.708;2024-01-10T04:50:46;19.70;;;18.70;;
19830;SDS011;10076;52.008;4.708;2024-01-10T04:53:11;19.70;;;18.70;;
19830;SDS011;10076;52.008;4.708;2024-01-10T04:55:36;19.53;;;18.53;;
19830;SDS011;10076;52.008;4.708;2024-01-10T04:58:02;19.57;;;18.57;;
19830;SDS011;10076;52.008;4.708;2024-01-10T05:00:28;19.67;;;18.67;;
19830;SDS011;10076;52.008;4.708;2024-01-10T05:02:53;19.83;;;18.83;;
19830;SDS011;10076;52.008;4.708;2024-01-10T05:05:18;19.07;;;18.17;;
19830;SDS011;10076;52.008;4.708;2024-01-10T05:07:48;19.47;;;18.57;;
19830;SDS011;10076;52.008;4.708;2024-01-10T05:10:14;20.10;;;19.10;;
19830;SDS011;10076;52.008;4.708;2024-01-10T05:12:39;19.83;;;18.83;;
19830;SDS011;10076;52.008;4.708;2024-01-10T05:15:05;19.43;;;18.43;;
19830;SDS011;10076;52.008;4.708;2024-01-10T05:17:31;19.07;;;18.17;;
19830;SDS011;10076;52.008;4.708;2024-01-10T05:19:56;19.40;;;18.40;;
19830;SDS011;10076;52.008;4.708;2024-01-10T05:22:21;18.40;;;17.50;;
19830;SDS011;10076;52.008;4.708;2024-01-10T05:24:47;20.13;;;19.13;;
19830;SDS011;10076;52.008;4.708;2024-01-10T05:27:13;19.47;;;18.47;;
19830;SDS011;10076;52.008;4.708;2024-01-10T05:29:38;18.97;;;18.07;;
19830;SDS011;10076;52.008;4.708;2024-01-10T05:32:03;19.20;;;18.30;;
19830;SDS011;10076;52.008;4.708;2024-01-10T05:34:29;19.23;;;18.33;;
19830;SDS011;10076;52.008;4.708;2024-01-10T05:36:54;19.87;;;18.57;;
19830;SDS011;10076;52.008;4.708;2024-01-10T05:39:20;18.83;;;17.93;;
19830;SDS011;10076;52.008;4.708;2024-01-10T05:41:46;18.27;;;17.37;;
19830;SDS011;10076;52.008;4.708;2024-01-10T05:44:12;18.47;;;17.57;;
19830;SDS011;10076;52.008;4.708;2024-01-10T05:46:37;18.60;;;17.60;;
19830;SDS011;10076;52.008;4.708;2024-01-10T05:49:03;17.70;;;16.90;;
19830;SDS011;10076;52.008;4.708;2024-01-10T05:51:29;18.10;;;17.20;;
19830;SDS011;10076;52.008;4.708;2024-01-10T05:53:55;18.10;;;17.20;;
19830;SDS011;10076;52.008;4.708;2024-01-10T05:56:20;17.50;;;16.70;;
19830;SDS011;10076;52.008;4.708;2024-01-10T05:58:46;17.57;;;16.77;;
19830;SDS011;10076;52.008;4.708;2024-01-10T06:01:11;17.30;;;16.40;;
19830;SDS011;10076;52.008;4.708;2024-01-10T06:03:36;17.40;;;16.60;;
19830;SDS011;10076;52.008;4.708;2024-01-10T06:06:02;17.93;;;16.93;;
19830;SDS011;10076;52.008;4.708;2024-01-10T06:08:28;17.67;;;16.77;;
19830;SDS011;10076;52.008;4.708;2024-01-10T06:10:54;17.87;;;17.07;;
19830;SDS011;10076;52.008;4.708;2024-01-10T06:13:19;18.53;;;17.50;;
19830;SDS011;10076;52.008;4.708;2024-01-10T06:15:44;18.17;;;17.27;;
19830;SDS011;10076;52.008;4.708;2024-01-10T06:18:10;17.53;;;16.67;;
19830;SDS011;10076;52.008;4.708;2024-01-10T06:20:35;18.27;;;17.37;;
19830;SDS011;10076;52.008;4.708;2024-01-10T06:23:03;17.47;;;16.57;;
19830;SDS011;10076;52.008;4.708;2024-01-10T06:25:29;18.20;;;17.30;;
19830;SDS011;10076;52.008;4.708;2024-01-10T06:27:54;17.67;;;16.77;;
19830;SDS011;10076;52.008;4.708;2024-01-10T06:30:20;17.13;;;16.33;;
19830;SDS011;10076;52.008;4.708;2024-01-10T06:32:45;17.37;;;16.47;;
19830;SDS011;10076;52.008;4.708;2024-01-10T06:35:10;17.50;;;16.60;;
19830;SDS011;10076;52.008;4.708;2024-01-10T06:37:36;18.33;;;17.43;;
19830;SDS011;10076;52.008;4.708;2024-01-10T06:40:03;18.33;;;17.43;;
19830;SDS011;10076;52.008;4.708;2024-01-10T06:42:29;17.83;;;16.93;;
19830;SDS011;10076;52.008;4.708;2024-01-10T06:44:55;18.37;;;17.47;;
19830;SDS011;10076;52.008;4.708;2024-01-10T06:47:20;18.17;;;17.27;;
19830;SDS011;10076;52.008;4.708;2024-01-10T06:49:46;18.93;;;17.93;;
19830;SDS011;10076;52.008;4.708;2024-01-10T06:52:11;17.60;;;16.63;;
19830;SDS011;10076;52.008;4.708;2024-01-10T06:54:37;18.83;;;17.90;;
19830;SDS011;10076;52.008;4.708;2024-01-10T06:57:02;18.57;;;17.57;;
19830;SDS011;10076;52.008;4.708;2024-01-10T06:59:28;18.00;;;17.10;;
19830;SDS011;10076;52.008;4.708;2024-01-10T07:01:53;19.03;;;18.03;;
19830;SDS011;10076;52.008;4.708;2024-01-10T07:04:21;18.80;;;17.80;;
19830;SDS011;10076;52.008;4.708;2024-01-10T07:06:48;18.43;;;17.53;;
19830;SDS011;10076;52.008;4.708;2024-01-10T07:09:14;18.10;;;17.20;;
19830;SDS011;10076;52.008;4.708;2024-01-10T07:11:45;17.83;;;16.93;;
19830;SDS011;10076;52.008;4.708;2024-01-10T07:14:12;17.97;;;17.00;;
19830;SDS011;10076;52.008;4.708;2024-01-10T07:16:38;18.47;;;17.57;;
19830;SDS011;10076;52.008;4.708;2024-01-10T07:19:07;18.93;;;18.00;;
19830;SDS011;10076;52.008;4.708;2024-01-10T07:21:32;19.03;;;17.60;;
19830;SDS011;10076;52.008;4.708;2024-01-10T07:23:58;17.97;;;17.07;;
19830;SDS011;10076;52.008;4.708;2024-01-10T07:26:24;18.73;;;17.70;;
19830;SDS011;10076;52.008;4.708;2024-01-10T07:28:49;18.37;;;17.47;;
19830;SDS011;10076;52.008;4.708;2024-01-10T07:31:15;18.37;;;17.47;;
19830;SDS011;10076;52.008;4.708;2024-01-10T07:33:40;18.97;;;17.93;;
19830;SDS011;10076;52.008;4.708;2024-01-10T07:36:06;18.40;;;17.30;;
19830;SDS011;10076;52.008;4.708;2024-01-10T07:38:34;17.77;;;16.87;;
19830;SDS011;10076;52.008;4.708;2024-01-10T07:41:00;18.13;;;17.23;;
19830;SDS011;10076;52.008;4.708;2024-01-10T07:43:25;18.23;;;17.33;;
19830;SDS011;10076;52.008;4.708;2024-01-10T07:45:52;18.10;;;17.10;;
19830;SDS011;10076;52.008;4.708;2024-01-10T07:48:18;18.07;;;17.17;;
19830;SDS011;10076;52.008;4.708;2024-01-10T07:50:44;17.73;;;16.83;;
19830;SDS011;10076;52.008;4.708;2024-01-10T07:53:10;16.93;;;16.13;;
19830;SDS011;10076;52.008;4.708;2024-01-10T07:55:35;17.70;;;16.80;;
19830;SDS011;10076;52.008;4.708;2024-01-10T07:58:00;17.83;;;16.93;;
19830;SDS011;10076;52.008;4.708;2024-01-10T08:00:26;16.80;;;16.00;;
19830;SDS011;10076;52.008;4.708;2024-01-10T08:02:51;17.73;;;16.83;;
19830;SDS011;10076;52.008;4.708;2024-01-10T08:05:17;18.53;;;17.50;;
19830;SDS011;10076;52.008;4.708;2024-01-10T08:07:42;18.97;;;17.53;;
19830;SDS011;10076;52.008;4.708;2024-01-10T08:10:08;18.33;;;17.23;;
19830;SDS011;10076;52.008;4.708;2024-01-10T08:12:37;17.00;;;16.20;;
19830;SDS011;10076;52.008;4.708;2024-01-10T08:15:04;17.00;;;16.20;;
19830;SDS011;10076;52.008;4.708;2024-01-10T08:17:29;17.30;;;16.50;;
19830;SDS011;10076;52.008;4.708;2024-01-10T08:19:54;17.23;;;16.33;;
19830;SDS011;10076;52.008;4.708;2024-01-10T08:22:23;16.60;;;15.77;;
19830;SDS011;10076;52.008;4.708;2024-01-10T08:24:48;16.50;;;15.70;;
19830;SDS011;10076;52.008;4.708;2024-01-10T08:27:13;17.20;;;16.37;;
19830;SDS011;10076;52.008;4.708;2024-01-10T08:29:39;16.73;;;15.93;;
19830;SDS011;10076;52.008;4.708;2024-01-10T08:32:04;16.83;;;15.87;;
19830;SDS011;10076;52.008;4.708;2024-01-10T08:34:30;17.30;;;16.17;;
19830;SDS011;10076;52.008;4.708;2024-01-10T08:36:55;15.90;;;15.00;;
19830;SDS011;10076;52.008;4.708;2024-01-10T08:39:21;15.57;;;14.87;;
19830;SDS011;10076;52.008;4.708;2024-01-10T08:41:47;15.60;;;14.83;;
19830;SDS011;10076;52.008;4.708;2024-01-10T08:44:15;16.10;;;15.30;;
19830;SDS011;10076;52.008;4.708;2024-01-10T08:46:40;16.27;;;15.37;;
19830;SDS011;10076;52.008;4.708;2024-01-10T08:49:06;15.20;;;14.40;;
19830;SDS011;10076;52.008;4.708;2024-01-10T08:51:31;14.73;;;14.03;;
19830;SDS011;10076;52.008;4.708;2024-01-10T08:53:56;15.83;;;15.03;;
19830;SDS011;10076;52.008;4.708;2024-01-10T08:56:22;15.20;;;14.40;;
19830;SDS011;10076;52.008;4.708;2024-01-10T08:58:48;14.50;;;13.80;;
19830;SDS011;10076;52.008;4.708;2024-01-10T09:01:14;13.70;;;13.10;;
19830;SDS011;10076;52.008;4.708;2024-01-10T09:03:39;13.80;;;13.20;;
19830;SDS011;10076;52.008;4.708;2024-01-10T09:06:07;14.13;;;13.33;;
19830;SDS011;10076;52.008;4.708;2024-01-10T09:08:35;14.13;;;13.43;;
19830;SDS011;10076;52.008;4.708;2024-01-10T09:11:00;14.03;;;13.37;;
19830;SDS011;10076;52.008;4.708;2024-01-10T09:13:26;14.17;;;13.47;;
19830;SDS011;10076;52.008;4.708;2024-01-10T09:15:52;14.00;;;13.20;;
19830;SDS011;10076;52.008;4.708;2024-01-10T09:18:17;12.67;;;12.13;;
19830;SDS011;10076;52.008;4.708;2024-01-10T09:20:43;18.97;;;13.00;;
19830;SDS011;10076;52.008;4.708;2024-01-10T09:23:08;13.00;;;12.40;;
19830;SDS011;10076;52.008;4.708;2024-01-10T09:25:37;13.43;;;12.83;;
19830;SDS011;10076;52.008;4.708;2024-01-10T09:28:05;12.50;;;12.00;;
19830;SDS011;10076;52.008;4.708;2024-01-10T09:30:31;13.40;;;12.70;;
19830;SDS011;10076;52.008;4.708;2024-01-10T09:32:56;13.30;;;12.70;;
19830;SDS011;10076;52.008;4.708;2024-01-10T09:35:22;13.17;;;12.57;;
19830;SDS011;10076;52.008;4.708;2024-01-10T09:37:48;12.00;;;11.50;;
19830;SDS011;10076;52.008;4.708;2024-01-10T09:40:14;13.03;;;12.43;;
19830;SDS011;10076;52.008;4.708;2024-01-10T09:42:41;11.80;;;11.30;;
19830;SDS011;10076;52.008;4.708;2024-01-10T09:45:07;12.60;;;12.00;;
19830;SDS011;10076;52.008;4.708;2024-01-10T09:47:34;12.43;;;11.93;;
19830;SDS011;10076;52.008;4.708;2024-01-10T09:50:02;13.20;;;12.57;;
19830;SDS011;10076;52.008;4.708;2024-01-10T09:52:35;13.10;;;12.50;;
19830;SDS011;10076;52.008;4.708;2024-01-10T09:55:07;12.43;;;11.87;;
19830;SDS011;10076;52.008;4.708;2024-01-10T09:57:37;12.67;;;12.07;;
19830;SDS011;10076;52.008;4.708;2024-01-10T10:00:03;12.53;;;11.97;;
19830;SDS011;10076;52.008;4.708;2024-01-10T10:02:30;12.10;;;11.60;;
19830;SDS011;10076;52.008;4.708;2024-01-10T10:05:00;12.67;;;12.07;;
19830;SDS011;10076;52.008;4.708;2024-01-10T10:07:29;12.97;;;12.37;;
19830;SDS011;10076;52.008;4.708;2024-01-10T10:09:54;13.57;;;12.87;;
19830;SDS011;10076;52.008;4.708;2024-01-10T10:12:21;13.87;;;13.27;;
19830;SDS011;10076;52.008;4.708;2024-01-10T10:14:47;15.17;;;14.37;;
19830;SDS011;10076;52.008;4.708;2024-01-10T10:17:13;15.20;;;14.50;;
19830;SDS011;10076;52.008;4.708;2024-01-10T10:19:40;16.10;;;15.20;;
19830;SDS011;10076;52.008;4.708;2024-01-10T10:22:08;16.17;;;15.23;;
19830;SDS011;10076;52.008;4.708;2024-01-10T10:24:37;17.20;;;16.10;;
19830;SDS011;10076;52.008;4.708;2024-01-10T10:27:11;16.57;;;15.67;;
19830;SDS011;10076;52.008;4.708;2024-01-10T10:29:37;17.00;;;16.10;;
19830;SDS011;10076;52.008;4.708;2024-01-10T10:32:03;16.73;;;15.83;;
19830;SDS011;10076;52.008;4.708;2024-01-10T10:34:33;17.47;;;16.20;;
19830;SDS011;10076;52.008;4.708;2024-01-10T10:36:58;17.27;;;16.20;;
19830;SDS011;10076;52.008;4.708;2024-01-10T10:39:24;16.53;;;15.50;;
19830;SDS011;10076;52.008;4.708;2024-01-10T10:41:50;16.97;;;15.97;;
19830;SDS011;10076;52.008;4.708;2024-01-10T10:44:18;17.13;;;16.00;;
19830;SDS011;10076;52.008;4.708;2024-01-10T10:46:52;16.43;;;15.63;;
19830;SDS011;10076;52.008;4.708;2024-01-10T10:49:20;18.23;;;17.07;;
19830;SDS011;10076;52.008;4.708;2024-01-10T10:51:55;16.80;;;15.90;;
19830;SDS011;10076;52.008;4.708;2024-01-10T10:54:23;19.20;;;17.17;;
19830;SDS011;10076;52.008;4.708;2024-01-10T10:56:56;17.50;;;16.40;;
19830;SDS011;10076;52.008;4.708;2024-01-10T10:59:23;17.83;;;16.73;;
19830;SDS011;10076;52.008;4.708;2024-01-10T11:01:51;17.30;;;16.17;;
19830;SDS011;10076;52.008;4.708;2024-01-10T11:04:18;17.17;;;16.23;;
19830;SDS011;10076;52.008;4.708;2024-01-10T11:06:49;17.83;;;16.80;;
19830;SDS011;10076;52.008;4.708;2024-01-10T11:09:15;17.37;;;16.23;;
19830;SDS011;10076;52.008;4.708;2024-01-10T11:25:44;17.20;;;16.20;;
19830;SDS011;10076;52.008;4.708;2024-01-10T11:28:11;17.00;;;15.83;;
19830;SDS011;10076;52.008;4.708;2024-01-10T11:30:47;16.27;;;15.47;;
19830;SDS011;10076;52.008;4.708;2024-01-10T11:33:17;17.20;;;16.00;;
19830;SDS011;10076;52.008;4.708;2024-01-10T11:36:08;17.40;;;16.43;;
19830;SDS011;10076;52.008;4.708;2024-01-10T11:39:01;16.50;;;15.60;;
19830;SDS011;10076;52.008;4.708;2024-01-10T11:41:29;17.00;;;15.90;;
19830;SDS011;10076;52.008;4.708;2024-01-10T11:46:46;17.77;;;16.47;;
19830;SDS011;10076;52.008;4.708;2024-01-10T11:49:29;18.50;;;17.10;;
19830;SDS011;10076;52.008;4.708;2024-01-10T11:55:51;18.20;;;17.00;;
19830;SDS011;10076;52.008;4.708;2024-01-10T12:08:38;19.20;;;17.90;;
19830;SDS011;10076;52.008;4.708;2024-01-10T12:11:07;18.17;;;17.05;;
19830;SDS011;10076;52.008;4.708;2024-01-10T12:13:38;18.20;;;16.95;;
19830;SDS011;10076;52.008;4.708;2024-01-10T12:16:17;18.65;;;17.35;;
19830;SDS011;10076;52.008;4.708;2024-01-10T12:18:57;19.65;;;18.15;;
19830;SDS011;10076;52.008;4.708;2024-01-10T12:21:43;19.15;;;17.55;;
19830;SDS011;10076;52.008;4.708;2024-01-10T12:27:42;18.13;;;16.65;;
19830;SDS011;10076;52.008;4.708;2024-01-10T12:30:29;19.25;;;17.65;;
19830;SDS011;10076;52.008;4.708;2024-01-10T12:33:14;18.50;;;17.20;;
19830;SDS011;10076;52.008;4.708;2024-01-10T12:36:13;18.20;;;16.98;;
19830;SDS011;10076;52.008;4.708;2024-01-10T12:38:44;18.52;;;17.17;;
19830;SDS011;10076;52.008;4.708;2024-01-10T12:41:48;18.40;;;17.08;;
19830;SDS011;10076;52.008;4.708;2024-01-10T12:55:05;18.42;;;17.02;;
19830;SDS011;10076;52.008;4.708;2024-01-10T12:57:42;18.40;;;17.10;;
19830;SDS011;10076;52.008;4.708;2024-01-10T13:00:32;18.55;;;17.35;;
19830;SDS011;10076;52.008;4.708;2024-01-10T13:21:06;17.70;;;16.52;;
19830;SDS011;10076;52.008;4.708;2024-01-10T13:27:20;17.60;;;16.60;;
19830;SDS011;10076;52.008;4.708;2024-01-10T13:30:22;18.42;;;16.92;;
19830;SDS011;10076;52.008;4.708;2024-01-10T13:33:20;18.83;;;17.15;;
19830;SDS011;10076;52.008;4.708;2024-01-10T13:36:25;18.33;;;17.00;;
19830;SDS011;10076;52.008;4.708;2024-01-10T13:39:09;18.90;;;17.60;;
19830;SDS011;10076;52.008;4.708;2024-01-10T13:41:40;17.80;;;16.65;;
19830;SDS011;10076;52.008;4.708;2024-01-10T13:44:08;17.90;;;16.70;;
19830;SDS011;10076;52.008;4.708;2024-01-10T13:46:52;18.20;;;16.90;;
19830;SDS011;10076;52.008;4.708;2024-01-10T13:49:18;18.23;;;16.63;;
19830;SDS011;10076;52.008;4.708;2024-01-10T13:51:49;17.75;;;16.45;;
19830;SDS011;10076;52.008;4.708;2024-01-10T13:54:19;18.25;;;17.05;;
19830;SDS011;10076;52.008;4.708;2024-01-10T13:56:46;17.75;;;16.55;;
19830;SDS011;10076;52.008;4.708;2024-01-10T13:59:12;17.73;;;16.65;;
19830;SDS011;10076;52.008;4.708;2024-01-10T14:01:38;17.43;;;16.30;;
19830;SDS011;10076;52.008;4.708;2024-01-10T14:04:04;17.50;;;16.13;;
19830;SDS011;10076;52.008;4.708;2024-01-10T14:06:30;18.30;;;16.93;;
19830;SDS011;10076;52.008;4.708;2024-01-10T14:08:56;18.03;;;16.80;;
19830;SDS011;10076;52.008;4.708;2024-01-10T14:11:22;16.70;;;15.70;;
19830;SDS011;10076;52.008;4.708;2024-01-10T14:13:48;16.90;;;16.00;;
19830;SDS011;10076;52.008;4.708;2024-01-10T14:16:14;17.07;;;16.13;;
19830;SDS011;10076;52.008;4.708;2024-01-10T14:18:40;16.30;;;15.40;;
19830;SDS011;10076;52.008;4.708;2024-01-10T14:21:11;16.30;;;15.40;;
19830;SDS011;10076;52.008;4.708;2024-01-10T14:23:39;17.87;;;16.57;;
19830;SDS011;10076;52.008;4.708;2024-01-10T14:26:05;16.77;;;15.87;;
19830;SDS011;10076;52.008;4.708;2024-01-10T14:28:31;18.13;;;17.03;;
19830;SDS011;10076;52.008;4.708;2024-01-10T14:30:57;16.57;;;15.67;;
19830;SDS011;10076;52.008;4.708;2024-01-10T14:33:28;17.00;;;16.00;;
19830;SDS011;10076;52.008;4.708;2024-01-10T14:35:53;18.20;;;16.87;;
19830;SDS011;10076;52.008;4.708;2024-01-10T14:38:22;16.90;;;15.90;;
19830;SDS011;10076;52.008;4.708;2024-01-10T14:40:48;16.30;;;15.37;;
19830;SDS011;10076;52.008;4.708;2024-01-10T14:43:16;16.97;;;15.97;;
19830;SDS011;10076;52.008;4.708;2024-01-10T14:45:42;16.80;;;15.60;;
19830;SDS011;10076;52.008;4.708;2024-01-10T14:48:08;17.17;;;16.07;;
19830;SDS011;10076;52.008;4.708;2024-01-10T14:50:34;16.40;;;15.50;;
19830;SDS011;10076;52.008;4.708;2024-01-10T14:52:59;16.63;;;15.63;;
19830;SDS011;10076;52.008;4.708;2024-01-10T14:55:25;17.53;;;16.30;;
19830;SDS011;10076;52.008;4.708;2024-01-10T14:57:53;17.13;;;16.13;;
19830;SDS011;10076;52.008;4.708;2024-01-10T15:00:18;16.50;;;15.50;;
19830;SDS011;10076;52.008;4.708;2024-01-10T15:02:44;16.43;;;15.40;;
19830;SDS011;10076;52.008;4.708;2024-01-10T15:05:13;17.03;;;15.87;;
19830;SDS011;10076;52.008;4.708;2024-01-10T15:07:38;15.83;;;15.03;;
19830;SDS011;10076;52.008;4.708;2024-01-10T15:10:04;16.77;;;15.83;;
19830;SDS011;10076;52.008;4.708;2024-01-10T15:12:30;16.20;;;15.30;;
19830;SDS011;10076;52.008;4.708;2024-01-10T15:14:59;17.40;;;16.10;;
19830;SDS011;10076;52.008;4.708;2024-01-10T15:17:29;16.63;;;15.53;;
19830;SDS011;10076;52.008;4.708;2024-01-10T15:19:55;16.27;;;15.47;;
19830;SDS011;10076;52.008;4.708;2024-01-10T15:22:21;15.77;;;15.00;;
19830;SDS011;10076;52.008;4.708;2024-01-10T15:24:46;15.33;;;14.57;;
19830;SDS011;10076;52.008;4.708;2024-01-10T15:27:14;16.17;;;15.27;;
19830;SDS011;10076;52.008;4.708;2024-01-10T15:29:43;15.97;;;15.03;;